Time;durP1;ratioP1;P1;durP2;ratioP2;P2;SDS_P1;SDS_P2;PMS_P1;PMS_P2;Temp;Humidity;BMP_temperature;BMP_pressure;BME280_temperature;BME280_humidity;BME280_pressure;Samples;Min_cycle;Max_cycle;Signal;HPM_P1;HPM_P2
2021/07/31 00:01:50;;;;;;;1.92;1.10;;;22.80;53.50;;;;;;10011340;28;20042;-60
2021/07/31 00:06:40;;;;;;;3.25;1.65;;;22.70;53.40;;;;;;10009012;28;20026;-60
2021/07/31 00:11:31;;;;;;;2.95;1.10;;;22.70;53.30;;;;;;10011376;28;20164;-61
2021/07/31 00:16:22;;;;;;;2.47;1.23;;;22.60;53.00;;;;;;10006962;28;20085;-60
2021/07/31 00:21:12;;;;;;;4.07;1.35;;;22.50;53.00;;;;;;10009724;28;20100;-60
2021/07/31 00:26:03;;;;;;;1.75;1.00;;;22.50;53.20;;;;;;10000219;28;20030;-60
2021/07/31 00:30:54;;;;;;;2.72;1.65;;;22.40;53.10;;;;;;10028201;28;20179;-60
2021/07/31 00:35:45;;;;;;;3.13;1.02;;;22.30;53.20;;;;;;10010429;28;21062;-60
2021/07/31 00:40:35;;;;;;;4.13;1.20;;;22.30;53.00;;;;;;10002173;28;20046;-60
2021/07/31 00:45:26;;;;;;;3.08;1.38;;;22.30;52.90;;;;;;10010297;28;20093;-61
2021/07/31 00:50:17;;;;;;;2.65;1.65;;;22.30;52.90;;;;;;10009313;28;20033;-60
2021/07/31 00:55:24;;;;;;;2.53;1.50;;;22.30;52.90;;;;;;10011509;28;20026;-60
2021/07/31 01:00:15;;;;;;;4.65;1.10;;;22.30;52.90;;;;;;10009188;28;20677;-60
2021/07/31 01:05:06;;;;;;;2.40;1.05;;;22.20;53.10;;;;;;10010394;28;20096;-60
2021/07/31 01:09:57;;;;;;;2.50;1.20;;;22.20;53.10;;;;;;9998959;28;20481;-60
2021/07/31 01:14:48;;;;;;;2.38;0.90;;;22.20;53.00;;;;;;10008955;28;20048;-60
2021/07/31 01:19:39;;;;;;;4.80;1.20;;;22.20;52.90;;;;;;10006050;28;20119;-60
2021/07/31 01:24:30;;;;;;;3.47;1.05;;;22.10;52.80;;;;;;10009716;28;20436;-60
2021/07/31 01:29:21;;;;;;;2.88;0.95;;;22.10;52.70;;;;;;10000051;28;20022;-60
2021/07/31 01:34:12;;;;;;;2.65;1.40;;;22.10;52.50;;;;;;9995369;28;20464;-59
2021/07/31 01:39:03;;;;;;;2.33;1.05;;;22.00;52.30;;;;;;10006759;28;20547;-61
2021/07/31 01:43:55;;;;;;;2.88;0.90;;;21.80;52.50;;;;;;9993391;28;20036;-60
2021/07/31 01:48:46;;;;;;;4.05;1.00;;;21.80;52.50;;;;;;10001923;28;20021;-60
2021/07/31 01:53:37;;;;;;;3.80;1.48;;;21.60;52.50;;;;;;10002990;28;20042;-60
2021/07/31 01:58:28;;;;;;;2.45;1.27;;;21.60;52.50;;;;;;9987446;28;20145;-59
2021/07/31 02:03:18;;;;;;;1.00;0.70;;;21.60;52.50;;;;;;10007593;28;20041;-60
2021/07/31 02:08:09;;;;;;;2.53;1.10;;;21.50;52.60;;;;;;9999955;28;20035;-60
2021/07/31 02:12:59;;;;;;;4.28;0.95;;;21.50;52.60;;;;;;9993413;28;20508;-60
2021/07/31 02:17:50;;;;;;;1.55;1.02;;;21.40;52.70;;;;;;10000089;28;20042;-60
2021/07/31 02:22:41;;;;;;;2.00;0.80;;;21.40;52.70;;;;;;10004188;28;20046;-60
2021/07/31 02:27:31;;;;;;;2.13;1.05;;;21.40;52.70;;;;;;9997340;28;20354;-59
2021/07/31 02:32:22;;;;;;;1.45;0.85;;;21.30;52.70;;;;;;10004911;28;20359;-60
2021/07/31 02:37:13;;;;;;;2.10;0.90;;;21.20;52.80;;;;;;10008669;28;20034;-60
2021/07/31 02:42:03;;;;;;;3.83;1.23;;;21.10;53.50;;;;;;10013734;28;20045;-59
2021/07/31 02:46:54;;;;;;;2.33;0.95;;;21.20;52.80;;;;;;10013715;28;20108;-60
2021/07/31 02:51:45;;;;;;;2.80;1.45;;;21.10;52.90;;;;;;10015088;28;20025;-60
2021/07/31 02:56:36;;;;;;;1.52;1.17;;;21.20;52.90;;;;;;10013816;28;20132;-60
2021/07/31 03:01:27;;;;;;;1.60;1.10;;;21.10;53.10;;;;;;10013067;28;20120;-59
2021/07/31 03:06:17;;;;;;;1.50;0.90;;;21.10;53.20;;;;;;10013278;28;20409;-60
2021/07/31 03:11:08;;;;;;;3.35;1.10;;;21.10;53.10;;;;;;10008920;28;20040;-59
2021/07/31 03:15:59;;;;;;;1.60;0.80;;;21.10;53.20;;;;;;10012074;28;20045;-60
2021/07/31 03:20:51;;;;;;;1.38;0.80;;;21.00;53.60;;;;;;10007895;28;20038;-60
2021/07/31 03:25:42;;;;;;;2.47;2.25;;;20.80;53.70;;;;;;9999235;28;20401;-60
2021/07/31 03:30:33;;;;;;;3.38;1.30;;;20.70;53.80;;;;;;10012066;28;20033;-60
2021/07/31 03:35:23;;;;;;;2.58;1.30;;;20.80;53.90;;;;;;10013863;28;20033;-60
2021/07/31 03:40:14;;;;;;;1.55;0.80;;;20.80;53.80;;;;;;10007382;28;20205;-60
2021/07/31 03:45:05;;;;;;;1.60;1.10;;;20.80;54.00;;;;;;10011492;28;20072;-60
2021/07/31 03:49:56;;;;;;;2.67;1.27;;;20.70;54.10;;;;;;10008553;28;20105;-59
2021/07/31 03:54:46;;;;;;;0.93;0.77;;;20.60;54.40;;;;;;10001756;28;20132;-59
2021/07/31 03:59:37;;;;;;;2.58;0.82;;;20.60;54.60;;;;;;10011757;28;20061;-59
2021/07/31 04:04:28;;;;;;;1.02;0.70;;;20.70;54.60;;;;;;9996136;28;20030;-59
2021/07/31 04:09:18;;;;;;;1.63;1.20;;;20.60;54.80;;;;;;10007027;28;20508;-61
2021/07/31 04:14:09;;;;;;;1.35;1.02;;;20.50;55.30;;;;;;10002638;28;20058;-59
2021/07/31 04:19:00;;;;;;;2.30;0.95;;;20.50;55.30;;;;;;10010240;28;20026;-59
2021/07/31 04:23:50;;;;;;;1.77;1.25;;;20.50;55.40;;;;;;10009352;28;20049;-60
2021/07/31 04:28:42;;;;;;;3.05;1.35;;;20.50;55.60;;;;;;10010209;28;20184;-60
2021/07/31 04:33:32;;;;;;;2.38;0.95;;;20.40;55.90;;;;;;10009843;28;20022;-61
2021/07/31 04:38:23;;;;;;;3.92;1.25;;;20.40;56.20;;;;;;10010210;28;20033;-60
2021/07/31 04:43:14;;;;;;;2.13;1.20;;;20.30;56.30;;;;;;10009238;28;20042;-60
2021/07/31 04:48:04;;;;;;;2.05;1.27;;;20.30;56.50;;;;;;10010715;28;20030;-60
2021/07/31 04:52:55;;;;;;;2.83;1.15;;;20.20;56.70;;;;;;10009953;28;20056;-60
2021/07/31 04:57:45;;;;;;;2.67;1.02;;;20.20;56.80;;;;;;10008653;28;20430;-59
2021/07/31 05:02:36;;;;;;;1.67;0.95;;;20.20;56.80;;;;;;10002137;28;20077;-59
2021/07/31 05:07:27;;;;;;;5.68;1.80;;;20.20;57.00;;;;;;9999894;28;20448;-59
2021/07/31 05:12:17;;;;;;;1.60;0.77;;;20.10;57.50;;;;;;10008619;28;20105;-60
2021/07/31 05:17:08;;;;;;;4.10;0.95;;;20.00;57.70;;;;;;10005801;28;20437;-59
2021/07/31 05:21:58;;;;;;;3.78;1.30;;;19.80;58.20;;;;;;10004865;28;20125;-59
2021/07/31 05:26:49;;;;;;;1.50;0.82;;;19.80;58.40;;;;;;10005299;28;20105;-60
2021/07/31 05:31:39;;;;;;;4.88;1.25;;;19.90;58.50;;;;;;10006476;28;20484;-60
2021/07/31 05:36:34;;;;;;;4.05;1.45;;;19.90;58.40;;;;;;10007199;28;20037;-60
2021/07/31 05:41:25;;;;;;;1.48;1.10;;;20.10;58.20;;;;;;10007442;28;20053;-60
2021/07/31 05:46:17;;;;;;;2.47;1.02;;;20.00;58.50;;;;;;10009823;28;20037;-60
2021/07/31 05:51:15;;;;;;;5.55;1.42;;;20.00;58.40;;;;;;10007056;28;20101;-60
2021/07/31 05:56:11;;;;;;;6.32;0.88;;;20.00;58.40;;;;;;10007291;28;20042;-60
2021/07/31 06:01:05;;;;;;;1.30;0.90;;;20.10;58.40;;;;;;10008782;28;20041;-61
2021/07/31 06:05:57;;;;;;;2.72;0.98;;;20.10;58.40;;;;;;10005946;28;20097;-61
2021/07/31 06:10:48;;;;;;;3.03;1.00;;;20.20;58.50;;;;;;10007093;28;20475;-59
2021/07/31 06:15:43;;;;;;;1.50;0.98;;;20.30;58.30;;;;;;10014185;28;20046;-60
2021/07/31 06:20:34;;;;;;;1.97;1.20;;;20.30;58.30;;;;;;10016388;28;20046;-61
2021/07/31 06:25:24;;;;;;;2.17;1.20;;;20.30;58.50;;;;;;10016284;28;20109;-59
2021/07/31 06:30:15;;;;;;;1.90;0.98;;;20.40;58.40;;;;;;10016721;28;20117;-60
2021/07/31 06:35:06;;;;;;;4.50;1.50;;;20.40;58.30;;;;;;10015611;28;20130;-60
2021/07/31 06:39:57;;;;;;;2.78;1.15;;;20.50;58.20;;;;;;10005741;28;20029;-60
2021/07/31 06:44:47;;;;;;;2.28;1.45;;;20.70;58.00;;;;;;10014237;28;20659;-60
2021/07/31 06:49:38;;;;;;;5.78;1.10;;;20.70;57.90;;;;;;10013683;28;20026;-60
2021/07/31 06:54:29;;;;;;;1.40;0.85;;;21.00;57.50;;;;;;10014164;28;20030;-60
2021/07/31 06:59:20;;;;;;;1.40;1.08;;;21.10;57.30;;;;;;10014493;28;20026;-60
2021/07/31 07:04:10;;;;;;;1.58;1.00;;;21.30;57.10;;;;;;10013308;28;20132;-60
2021/07/31 07:09:01;;;;;;;3.25;1.23;;;21.30;56.80;;;;;;10014336;28;20025;-60
2021/07/31 07:13:51;;;;;;;3.13;1.17;;;21.30;56.70;;;;;;10007881;28;20146;-60
2021/07/31 07:18:42;;;;;;;2.53;1.00;;;21.20;56.30;;;;;;10011286;28;20080;-60
2021/07/31 07:23:33;;;;;;;1.58;0.93;;;21.40;56.10;;;;;;10011915;28;20107;-59
2021/07/31 07:28:25;;;;;;;3.25;1.13;;;21.60;55.70;;;;;;10013353;28;20113;-60
2021/07/31 07:33:16;;;;;;;1.08;0.80;;;21.70;55.10;;;;;;10011952;28;20030;-59
2021/07/31 07:38:06;;;;;;;6.82;1.40;;;21.60;54.90;;;;;;10011014;28;20046;-60
2021/07/31 07:42:57;;;;;;;3.22;1.00;;;21.70;54.80;;;;;;10012892;28;20066;-58
2021/07/31 07:47:48;;;;;;;1.83;1.15;;;21.70;54.50;;;;;;10007836;28;20496;-61
2021/07/31 07:52:38;;;;;;;3.15;1.05;;;21.80;54.10;;;;;;10009309;28;20504;-60
2021/07/31 07:57:29;;;;;;;3.22;1.23;;;21.90;53.90;;;;;;10012216;28;20021;-60
2021/07/31 08:02:20;;;;;;;3.83;1.02;;;22.00;53.60;;;;;;10011057;28;20080;-60
2021/07/31 08:07:12;;;;;;;3.40;0.90;;;22.10;53.40;;;;;;10007369;28;20097;-59
2021/07/31 08:12:07;;;;;;;4.00;0.80;;;22.20;53.00;;;;;;9994311;28;20475;-60
2021/07/31 08:16:58;;;;;;;2.47;0.90;;;22.30;52.50;;;;;;10007064;28;20602;-60
2021/07/31 08:21:49;;;;;;;3.03;0.90;;;22.10;52.60;;;;;;9994453;28;20104;-61
2021/07/31 08:26:40;;;;;;;1.17;0.88;;;22.30;52.30;;;;;;10008697;28;20061;-61
2021/07/31 08:31:31;;;;;;;1.77;0.80;;;22.40;52.00;;;;;;10002965;28;20034;-60
2021/07/31 08:36:22;;;;;;;2.70;0.80;;;22.60;51.70;;;;;;10000952;28;20405;-61
2021/07/31 08:41:14;;;;;;;2.05;1.00;;;22.50;51.70;;;;;;10010480;28;20140;-60
2021/07/31 08:46:10;;;;;;;1.67;0.85;;;22.50;51.60;;;;;;9994030;28;20069;-60
2021/07/31 08:51:02;;;;;;;3.45;1.00;;;22.70;51.10;;;;;;10002021;28;20451;-61
2021/07/31 08:55:53;;;;;;;7.05;2.17;;;22.90;50.90;;;;;;10009426;28;20026;-61
2021/07/31 09:00:43;;;;;;;3.00;1.15;;;23.20;50.70;;;;;;10001766;28;20480;-60
2021/07/31 09:05:37;;;;;;;2.97;1.00;;;23.30;50.50;;;;;;10005008;28;20482;-61
2021/07/31 09:10:29;;;;;;;2.35;0.93;;;23.40;50.30;;;;;;9989979;28;20450;-61
2021/07/31 09:15:30;;;;;;;4.07;1.27;;;23.20;50.40;;;;;;10008822;28;20038;-61
2021/07/31 09:20:21;;;;;;;3.30;1.10;;;23.30;50.00;;;;;;10009104;28;20042;-61
2021/07/31 09:25:13;;;;;;;3.50;1.35;;;23.10;50.50;;;;;;10008475;28;20037;-61
2021/07/31 09:30:05;;;;;;;1.10;1.00;;;23.40;50.10;;;;;;10004026;28;20022;-62
2021/07/31 09:34:56;;;;;;;2.78;0.90;;;23.70;49.80;;;;;;10008710;28;20025;-60
2021/07/31 09:39:58;;;;;;;8.32;1.67;;;23.50;49.80;;;;;;10008721;28;20064;-61
2021/07/31 09:44:49;;;;;;;2.35;1.05;;;23.50;49.80;;;;;;9999342;28;20022;-61
2021/07/31 09:49:40;;;;;;;4.93;1.20;;;23.60;49.70;;;;;;10008459;28;20048;-60
2021/07/31 09:54:31;;;;;;;2.35;1.00;;;23.40;49.90;;;;;;10007925;28;20030;-60
2021/07/31 09:59:23;;;;;;;3.80;1.63;;;23.60;49.70;;;;;;10008089;28;20025;-61
2021/07/31 10:04:14;;;;;;;3.15;1.10;;;23.30;49.80;;;;;;10008340;28;20068;-60
2021/07/31 10:09:06;;;;;;;3.30;1.10;;;23.40;49.60;;;;;;10007070;28;20511;-61
2021/07/31 10:13:59;;;;;;;4.38;1.50;;;23.80;48.80;;;;;;10002945;28;20208;-61
2021/07/31 10:19:04;;;;;;;1.95;1.13;;;24.30;48.00;;;;;;10008659;28;20400;-60
2021/07/31 10:23:55;;;;;;;1.48;1.02;;;24.50;47.20;;;;;;9990075;28;20117;-62
2021/07/31 10:28:46;;;;;;;2.25;1.15;;;24.50;47.20;;;;;;10007914;28;20081;-60
2021/07/31 10:33:44;;;;;;;3.40;1.38;;;24.50;47.00;;;;;;10007552;28;20030;-61
2021/07/31 10:38:35;;;;;;;3.80;1.77;;;24.30;46.40;;;;;;9999116;28;20033;-62
2021/07/31 10:43:28;;;;;;;2.50;0.90;;;24.30;46.10;;;;;;10006061;28;20045;-61
2021/07/31 10:48:25;;;;;;;3.03;1.30;;;24.50;45.70;;;;;;10005937;28;20456;-60
2021/07/31 10:53:19;;;;;;;3.05;1.00;;;24.60;45.30;;;;;;9994448;28;20026;-61
2021/07/31 10:58:21;;;;;;;2.78;1.13;;;24.60;45.60;;;;;;10011233;28;20030;-61
2021/07/31 11:03:31;;;;;;;4.35;1.08;;;24.80;45.20;;;;;;10011749;28;20099;-61
2021/07/31 11:08:26;;;;;;;5.32;1.35;;;25.00;44.70;;;;;;10014924;28;20108;-59
2021/07/31 11:13:16;;;;;;;2.03;0.88;;;25.30;44.70;;;;;;10015651;28;20041;-61
2021/07/31 11:18:07;;;;;;;1.90;1.17;;;25.50;44.50;;;;;;10014705;28;20030;-60
2021/07/31 11:23:03;;;;;;;2.25;0.93;;;25.50;44.40;;;;;;10016265;28;20042;-60
2021/07/31 11:28:07;;;;;;;2.38;1.30;;;25.20;44.10;;;;;;10011555;28;20038;-60
2021/07/31 11:33:24;;;;;;;1.73;1.10;;;25.40;43.70;;;;;;10010193;28;20042;-61
2021/07/31 11:38:35;;;;;;;1.67;1.20;;;25.70;43.20;;;;;;10014888;28;20129;-61
2021/07/31 11:43:26;;;;;;;2.17;1.08;;;25.70;43.10;;;;;;10013876;28;20463;-60
2021/07/31 11:48:17;;;;;;;2.85;1.08;;;25.80;43.40;;;;;;10016011;28;20109;-60
2021/07/31 11:53:23;;;;;;;1.95;1.00;;;25.50;43.30;;;;;;10016440;28;20034;-61
2021/07/31 11:58:16;;;;;;;2.42;1.25;;;25.30;43.20;;;;;;10015470;28;20030;-61
2021/07/31 12:03:42;;;;;;;3.15;1.10;;;25.20;43.40;;;;;;9998702;28;20037;-61
2021/07/31 12:08:53;;;;;;;2.75;1.30;;;25.40;43.40;;;;;;10015463;28;20038;-61
2021/07/31 12:13:44;;;;;;;3.47;1.85;;;25.20;44.00;;;;;;10009689;28;20100;-62
2021/07/31 12:18:51;;;;;;;2.47;1.45;;;25.40;43.80;;;;;;10015143;28;20499;-60
2021/07/31 12:23:42;;;;;;;1.42;1.02;;;25.60;43.60;;;;;;10012855;28;20420;-61
2021/07/31 12:28:43;;;;;;;6.65;1.35;;;26.30;43.40;;;;;;10014526;28;20030;-59
2021/07/31 12:33:41;;;;;;;2.65;1.20;;;26.40;43.60;;;;;;10013807;28;20029;-60
2021/07/31 12:38:31;;;;;;;3.97;1.35;;;26.90;43.50;;;;;;10012744;28;20524;-60
2021/07/31 12:43:25;;;;;;;2.10;0.90;;;28.00;42.70;;;;;;10013413;28;20122;-60
2021/07/31 12:48:16;;;;;;;3.35;1.05;;;28.50;42.50;;;;;;10011507;28;20022;-61
2021/07/31 12:53:07;;;;;;;2.30;1.20;;;28.20;41.90;;;;;;9997086;28;20037;-60
2021/07/31 12:57:58;;;;;;;1.73;1.10;;;28.30;41.40;;;;;;10012390;28;20346;-61
2021/07/31 13:02:49;;;;;;;1.55;1.15;;;28.70;40.90;;;;;;10010525;28;20038;-61
2021/07/31 13:07:40;;;;;;;2.50;1.30;;;29.50;40.10;;;;;;10012030;28;20022;-61
2021/07/31 13:12:31;;;;;;;3.72;1.15;;;29.40;39.10;;;;;;10012303;28;20079;-61
2021/07/31 13:17:22;;;;;;;3.13;1.15;;;28.90;39.50;;;;;;10011272;28;20029;-60
2021/07/31 13:22:13;;;;;;;4.05;1.30;;;30.10;38.60;;;;;;10011723;28;20042;-60
2021/07/31 13:27:04;;;;;;;2.70;1.10;;;32.10;36.40;;;;;;10011382;28;20427;-60
2021/07/31 13:31:54;;;;;;;2.42;1.10;;;30.90;36.10;;;;;;10010547;28;20076;-60
2021/07/31 13:36:47;;;;;;;2.13;1.13;;;29.20;37.00;;;;;;10011538;28;20042;-60
2021/07/31 13:41:38;;;;;;;1.10;0.90;;;28.60;37.50;;;;;;10007185;28;20042;-60
2021/07/31 13:46:29;;;;;;;3.63;1.20;;;29.50;36.00;;;;;;10011263;28;20034;-60
2021/07/31 13:51:20;;;;;;;2.05;1.15;;;28.40;36.80;;;;;;10012333;28;20547;-59
2021/07/31 13:56:11;;;;;;;1.60;1.08;;;27.80;37.60;;;;;;10012559;28;20030;-60
2021/07/31 14:01:01;;;;;;;1.60;1.00;;;27.60;37.90;;;;;;10012050;28;20049;-60
2021/07/31 14:05:52;;;;;;;4.20;1.55;;;27.20;37.80;;;;;;10011403;28;20306;-59
2021/07/31 14:10:43;;;;;;;3.92;1.27;;;27.30;37.80;;;;;;10011661;28;20026;-61
2021/07/31 14:15:33;;;;;;;2.95;1.13;;;27.40;37.60;;;;;;10009771;28;20045;-59
2021/07/31 14:20:24;;;;;;;2.60;0.98;;;27.10;38.00;;;;;;10011471;28;20054;-60
2021/07/31 14:25:15;;;;;;;2.00;1.30;;;26.80;38.40;;;;;;10012362;28;20088;-60
2021/07/31 14:30:06;;;;;;;1.55;1.20;;;26.60;38.60;;;;;;10011686;28;20030;-59
2021/07/31 14:34:57;;;;;;;3.80;1.30;;;27.00;38.30;;;;;;10016173;28;20029;-60
2021/07/31 14:39:48;;;;;;;1.92;1.35;;;29.40;36.10;;;;;;10005409;28;20038;-60
2021/07/31 14:44:38;;;;;;;2.88;1.30;;;28.90;36.70;;;;;;10016501;28;20037;-60
2021/07/31 14:49:29;;;;;;;2.53;1.42;;;29.90;36.90;;;;;;10018887;28;20033;-59
2021/07/31 14:54:19;;;;;;;2.40;1.92;;;31.20;36.10;;;;;;10018930;28;20438;-60
2021/07/31 14:59:10;;;;;;;1.60;1.13;;;32.70;35.10;;;;;;10008503;28;20364;-60
2021/07/31 15:04:03;;;;;;;5.22;1.20;;;31.10;36.10;;;;;;10013882;28;20046;-59
2021/07/31 15:08:54;;;;;;;5.22;1.27;;;28.50;38.30;;;;;;10018346;28;20026;-59
2021/07/31 15:13:45;;;;;;;1.50;0.93;;;27.20;39.30;;;;;;10015988;28;20680;-59
2021/07/31 15:18:38;;;;;;;2.72;1.20;;;27.00;39.40;;;;;;10015749;28;20052;-59
2021/07/31 15:23:28;;;;;;;3.27;1.60;;;27.40;39.20;;;;;;10017148;28;20293;-60
2021/07/31 15:28:19;;;;;;;2.88;1.20;;;28.50;38.00;;;;;;10015352;28;20148;-60
2021/07/31 15:33:09;;;;;;;5.47;1.52;;;30.00;36.90;;;;;;10014425;28;20439;-60
2021/07/31 15:38:00;;;;;;;2.58;1.05;;;31.00;36.20;;;;;;10005071;28;20427;-61
2021/07/31 15:42:51;;;;;;;3.80;1.27;;;29.10;37.90;;;;;;10013000;28;20046;-61
2021/07/31 15:47:41;;;;;;;3.60;1.25;;;30.40;36.70;;;;;;10006897;28;20186;-60
2021/07/31 15:52:35;;;;;;;2.92;1.20;;;32.10;35.00;;;;;;10004849;28;20034;-61
2021/07/31 15:57:26;;;;;;;1.00;0.93;;;33.00;34.20;;;;;;10004569;28;20093;-60
2021/07/31 16:02:17;;;;;;;2.17;1.52;;;33.30;33.60;;;;;;10007914;28;20124;-60
2021/07/31 16:07:08;;;;;;;1.53;1.20;;;34.00;32.80;;;;;;10011953;28;20566;-66
2021/07/31 16:11:58;;;;;;;3.55;1.67;;;34.60;32.60;;;;;;10014191;28;20140;-60
2021/07/31 16:16:49;;;;;;;6.45;1.92;;;34.80;31.40;;;;;;10015159;28;20165;-66
2021/07/31 16:21:40;;;;;;;2.33;1.50;;;32.00;34.00;;;;;;10034058;28;20037;-64
2021/07/31 16:26:30;;;;;;;3.20;1.50;;;29.60;36.10;;;;;;10013581;28;20461;-62
2021/07/31 16:31:21;;;;;;;2.65;1.25;;;28.80;36.90;;;;;;10002912;28;20462;-65
2021/07/31 16:36:12;;;;;;;5.07;1.30;;;28.30;36.70;;;;;;9997500;28;20027;-61
2021/07/31 16:41:03;;;;;;;4.30;1.50;;;27.40;38.50;;;;;;10011719;28;20116;-53
2021/07/31 16:45:54;;;;;;;1.83;1.20;;;28.10;38.10;;;;;;10012612;28;20076;-55
2021/07/31 16:50:45;;;;;;;2.50;1.05;;;27.60;38.30;;;;;;10013254;28;20123;-62
2021/07/31 16:55:35;;;;;;;3.38;1.50;;;28.00;38.50;;;;;;10010526;28;20310;-59
2021/07/31 17:00:26;;;;;;;2.65;1.33;;;31.30;35.00;;;;;;10013050;28;20507;-58
2021/07/31 17:05:17;;;;;;;2.28;1.33;;;28.60;37.60;;;;;;10010405;28;20040;-58
2021/07/31 17:10:10;;;;;;;4.53;1.70;;;27.50;39.20;;;;;;10012347;28;20026;-60
2021/07/31 17:15:00;;;;;;;5.30;1.83;;;27.30;39.60;;;;;;10007703;28;20041;-59
2021/07/31 17:19:51;;;;;;;3.88;1.50;;;28.20;38.30;;;;;;10006500;28;20412;-65
2021/07/31 17:24:43;;;;;;;5.10;1.30;;;30.20;36.30;;;;;;10005273;28;20117;-59
2021/07/31 17:29:34;;;;;;;4.55;1.50;;;27.90;38.80;;;;;;10002572;28;20025;-59
2021/07/31 17:34:25;;;;;;;3.45;1.60;;;26.50;40.90;;;;;;10002257;28;20033;-58
2021/07/31 17:39:17;;;;;;;2.97;1.55;;;25.80;41.40;;;;;;10005069;28;20034;-55
2021/07/31 17:44:07;;;;;;;2.70;1.77;;;25.60;41.60;;;;;;9998798;28;20042;-56
2021/07/31 17:48:58;;;;;;;3.15;1.35;;;25.40;41.90;;;;;;10005983;28;20025;-58
2021/07/31 17:53:49;;;;;;;4.45;2.30;;;25.40;41.90;;;;;;10011235;28;20038;-60
2021/07/31 17:58:39;;;;;;;4.43;1.40;;;25.40;42.00;;;;;;10012143;28;20094;-60
2021/07/31 18:03:30;;;;;;;3.83;1.65;;;25.40;42.00;;;;;;10010978;28;20096;-59
2021/07/31 18:08:21;;;;;;;3.47;1.60;;;25.20;42.50;;;;;;9995225;28;20022;-63
2021/07/31 18:13:11;;;;;;;2.90;1.60;;;25.10;42.90;;;;;;10018125;28;20117;-63
2021/07/31 18:18:02;;;;;;;4.15;1.70;;;25.20;42.80;;;;;;10018347;28;20034;-62
2021/07/31 18:22:53;;;;;;;2.25;1.42;;;25.00;43.10;;;;;;10017888;28;20034;-63
2021/07/31 18:27:43;;;;;;;3.13;1.90;;;24.70;43.60;;;;;;10019098;28;20034;-63
2021/07/31 18:32:34;;;;;;;2.58;1.50;;;24.60;43.70;;;;;;10007478;28;20029;-63
2021/07/31 18:37:25;;;;;;;2.92;1.60;;;24.50;43.90;;;;;;10016128;28;20022;-64
2021/07/31 18:42:15;;;;;;;2.40;1.63;;;24.50;43.90;;;;;;10017439;28;20508;-63
2021/07/31 18:47:06;;;;;;;3.58;1.58;;;24.50;44.20;;;;;;10015893;28;20116;-61
2021/07/31 18:51:57;;;;;;;4.20;2.35;;;24.40;44.40;;;;;;10015315;28;20026;-63
2021/07/31 18:56:47;;;;;;;3.70;1.70;;;24.30;44.40;;;;;;10018925;28;20033;-60
2021/07/31 19:01:38;;;;;;;5.43;2.08;;;24.30;44.50;;;;;;10011428;28;20037;-60
2021/07/31 19:06:29;;;;;;;2.35;1.80;;;24.10;44.80;;;;;;10017439;28;20084;-60
2021/07/31 19:11:19;;;;;;;3.42;1.70;;;24.50;44.50;;;;;;10016770;28;20133;-63
2021/07/31 19:16:11;;;;;;;4.28;1.83;;;24.50;44.70;;;;;;10012807;28;20056;-69
2021/07/31 19:21:01;;;;;;;2.35;1.50;;;24.50;44.80;;;;;;10013233;28;20117;-64
2021/07/31 19:25:53;;;;;;;3.95;2.15;;;24.40;45.00;;;;;;10011081;28;20595;-63
2021/07/31 19:30:43;;;;;;;4.63;1.48;;;24.20;45.20;;;;;;9997666;28;20017;-63
2021/07/31 19:35:34;;;;;;;3.03;1.60;;;24.20;45.50;;;;;;10013305;28;20029;-65
2021/07/31 19:40:25;;;;;;;5.25;1.88;;;24.10;45.60;;;;;;9999110;28;20041;-67
2021/07/31 19:45:15;;;;;;;4.45;2.65;;;24.10;45.90;;;;;;10008185;28;20057;-65
2021/07/31 19:50:07;;;;;;;4.18;1.98;;;24.00;46.00;;;;;;10013112;28;20034;-64
2021/07/31 19:54:57;;;;;;;3.47;1.35;;;23.90;46.20;;;;;;10005229;28;20128;-63
2021/07/31 19:59:48;;;;;;;3.70;2.08;;;24.10;46.30;;;;;;10010365;28;20120;-63
2021/07/31 20:04:39;;;;;;;6.18;2.78;;;24.00;46.40;;;;;;9999465;28;20053;-60
2021/07/31 20:09:30;;;;;;;2.45;1.63;;;24.10;46.40;;;;;;10009232;28;20030;-62
2021/07/31 20:14:20;;;;;;;4.07;1.67;;;24.00;46.70;;;;;;10005693;28;20127;-63
2021/07/31 20:19:11;;;;;;;3.30;2.08;;;23.90;46.70;;;;;;9999842;28;20095;-63
2021/07/31 20:24:01;;;;;;;2.75;1.85;;;23.90;46.90;;;;;;10009671;28;20038;-63
2021/07/31 20:28:52;;;;;;;2.70;1.60;;;23.80;47.10;;;;;;10009317;28;20026;-62
2021/07/31 20:33:43;;;;;;;3.05;1.88;;;23.60;47.50;;;;;;10005718;28;20497;-64
2021/07/31 20:38:34;;;;;;;5.25;2.28;;;23.60;47.80;;;;;;10005318;28;20029;-61
2021/07/31 20:43:24;;;;;;;4.53;1.73;;;23.50;47.90;;;;;;10007558;28;20034;-63
2021/07/31 20:48:15;;;;;;;1.88;1.52;;;23.60;47.80;;;;;;10005240;28;20022;-63
2021/07/31 20:53:07;;;;;;;1.85;1.42;;;23.60;47.80;;;;;;10007136;28;20112;-64
2021/07/31 20:57:58;;;;;;;2.17;1.73;;;23.50;48.10;;;;;;10006353;28;20095;-63
2021/07/31 21:02:49;;;;;;;2.55;1.75;;;23.60;48.00;;;;;;10010933;28;20045;-63
2021/07/31 21:07:40;;;;;;;2.65;2.10;;;23.50;48.20;;;;;;10010028;28;20026;-63
2021/07/31 21:12:30;;;;;;;2.65;1.63;;;23.40;48.40;;;;;;10008889;28;20134;-63
2021/07/31 21:17:21;;;;;;;1.98;1.33;;;23.20;48.80;;;;;;10009840;28;20057;-64
2021/07/31 21:22:11;;;;;;;3.38;1.85;;;23.30;48.70;;;;;;10008387;28;20100;-63
2021/07/31 21:27:02;;;;;;;3.47;2.03;;;23.20;48.80;;;;;;9996563;28;20018;-63
2021/07/31 21:31:53;;;;;;;5.38;1.60;;;23.00;49.20;;;;;;10009665;28;20034;-63
2021/07/31 21:36:43;;;;;;;4.35;1.42;;;23.10;49.10;;;;;;9995216;28;20325;-63
2021/07/31 21:41:34;;;;;;;3.60;2.13;;;23.00;49.50;;;;;;9995538;28;20132;-63
2021/07/31 21:46:24;;;;;;;3.17;1.83;;;22.70;50.10;;;;;;9999995;28;20092;-61
2021/07/31 21:51:15;;;;;;;4.70;1.92;;;22.60;50.30;;;;;;9990121;28;20713;-62
2021/07/31 21:56:13;;;;;;;2.13;1.67;;;22.60;50.70;;;;;;10001859;28;20041;-71
2021/07/31 22:01:04;;;;;;;5.90;1.42;;;22.40;51.00;;;;;;10007865;28;20092;-62
2021/07/31 22:05:54;;;;;;;5.82;1.95;;;22.60;50.90;;;;;;10001008;28;20472;-54
2021/07/31 22:10:45;;;;;;;4.03;2.17;;;22.30;51.60;;;;;;10002195;28;20416;-62
2021/07/31 22:15:37;;;;;;;3.15;1.73;;;22.40;51.70;;;;;;9988830;28;20114;-61
2021/07/31 22:20:28;;;;;;;4.30;2.03;;;22.40;51.90;;;;;;9999087;28;20037;-64
2021/07/31 22:25:18;;;;;;;2.83;1.67;;;22.50;52.30;;;;;;9989423;28;20396;-60
2021/07/31 22:30:11;;;;;;;2.00;1.58;;;22.40;52.50;;;;;;10017810;28;20037;-62
2021/07/31 22:35:01;;;;;;;4.50;2.05;;;22.40;52.80;;;;;;10011947;28;20030;-61
2021/07/31 22:39:52;;;;;;;2.97;1.80;;;22.20;53.60;;;;;;10011736;28;20038;-64
2021/07/31 22:44:43;;;;;;;5.68;2.25;;;22.10;54.20;;;;;;10004696;28;20033;-62
2021/07/31 22:49:35;;;;;;;4.93;1.83;;;22.00;54.40;;;;;;9996862;28;20589;-63
2021/07/31 22:54:25;;;;;;;3.72;1.85;;;22.20;54.40;;;;;;9997099;28;20030;-61
2021/07/31 22:59:16;;;;;;;3.50;2.10;;;22.00;55.00;;;;;;10013819;28;20026;-62
2021/07/31 23:04:06;;;;;;;3.60;1.80;;;22.00;55.70;;;;;;10013576;28;20100;-59
2021/07/31 23:08:57;;;;;;;5.05;2.58;;;22.00;56.00;;;;;;10015405;28;20022;-61
2021/07/31 23:13:48;;;;;;;2.80;1.80;;;21.90;56.30;;;;;;10013948;28;20495;-59
2021/07/31 23:18:38;;;;;;;3.35;2.00;;;21.90;56.60;;;;;;10010622;28;20309;-59
2021/07/31 23:23:30;;;;;;;4.32;2.30;;;21.90;56.80;;;;;;10014533;28;20407;-62
2021/07/31 23:28:21;;;;;;;3.25;1.63;;;22.00;56.90;;;;;;10014636;28;20112;-59
2021/07/31 23:33:11;;;;;;;4.03;1.73;;;21.80;57.20;;;;;;10013399;28;20120;-59
2021/07/31 23:38:02;;;;;;;5.82;2.88;;;21.80;57.20;;;;;;9999457;28;20064;-62
2021/07/31 23:42:53;;;;;;;4.93;2.95;;;21.90;57.30;;;;;;10009492;28;20045;-63
2021/07/31 23:47:46;;;;;;;5.72;2.45;;;21.80;57.40;;;;;;10013113;28;20018;-63
2021/07/31 23:52:37;;;;;;;3.00;1.77;;;21.70;57.60;;;;;;10011453;28;20033;-61
2021/07/31 23:57:27;;;;;;;2.67;2.00;;;21.80;57.60;;;;;;10006356;28;20306;-60
